Time;durP1;ratioP1;P1;durP2;ratioP2;P2;SDS_P1;SDS_P2;PMS_P1;PMS_P2;Temp;Humidity;BMP_temperature;BMP_pressure;BME280_temperature;BME280_humidity;BME280_pressure;Samples;Min_cycle;Max_cycle;Signal;HPM_P1;HPM_P2
2024/04/09 00:00:32;;;;;;;22.20;4.35;;;19.10;93.20;;;;;;5360734;26;20000;-55
2024/04/09 00:02:58;;;;;;;20.95;3.50;;;19.10;93.20;;;;;;5364146;26;19996;-56
2024/04/09 00:05:31;;;;;;;20.42;3.45;;;19.10;92.90;;;;;;5364356;26;20073;-57
2024/04/09 00:07:58;;;;;;;;;;;19.10;93.20;;;;;;5359408;26;20479;-57
2024/04/09 00:10:24;;;;;;;24.58;3.75;;;19.10;93.40;;;;;;5364432;26;19933;-56
2024/04/09 00:12:52;;;;;;;23.98;4.63;;;19.10;93.10;;;;;;5355575;26;20019;-58
2024/04/09 00:15:17;;;;;;;22.88;3.58;;;19.10;92.90;;;;;;5359044;26;20383;-55
2024/04/09 00:17:54;;;;;;;18.45;3.85;;;19.20;93.10;;;;;;5357922;26;20012;-54
2024/04/09 00:20:26;;;;;;;14.60;3.42;;;19.20;92.90;;;;;;5354709;26;20283;-55
2024/04/09 00:22:54;;;;;;;28.20;3.70;;;19.20;93.30;;;;;;5354272;26;20007;-56
2024/04/09 00:25:23;;;;;;;23.30;4.15;;;19.10;93.50;;;;;;5356109;26;20521;-52
2024/04/09 00:27:55;;;;;;;27.55;4.22;;;19.10;93.20;;;;;;5354112;26;20015;-52
2024/04/09 00:30:21;;;;;;;25.40;4.60;;;19.20;92.90;;;;;;5352789;26;20000;-57
2024/04/09 00:32:48;;;;;;;25.50;5.07;;;19.20;93.00;;;;;;5358103;26;20019;-56
2024/04/09 00:35:14;;;;;;;27.42;4.30;;;19.20;92.80;;;;;;5374139;26;19996;-56
2024/04/09 00:37:41;;;;;;;23.88;5.55;;;19.20;93.10;;;;;;5360497;26;20012;-56
2024/04/09 00:40:09;;;;;;;30.50;4.38;;;19.20;92.80;;;;;;5356681;26;20015;-53
2024/04/09 00:42:36;;;;;;;23.35;3.88;;;19.30;92.60;;;;;;5353918;26;20016;-57
2024/04/09 00:45:04;;;;;;;33.08;6.03;;;19.30;92.40;;;;;;5356437;26;20001;-55
2024/04/09 00:47:36;;;;;;;25.33;5.22;;;19.40;92.50;;;;;;5356280;26;20540;-56
2024/04/09 00:50:04;;;;;;;31.38;6.10;;;19.40;92.10;;;;;;5356848;26;20012;-56
2024/04/09 00:52:33;;;;;;;27.27;4.45;;;19.40;92.10;;;;;;5366488;26;20431;-58
2024/04/09 00:55:02;;;;;;;33.60;5.15;;;19.40;91.70;;;;;;5364428;26;20037;-57
2024/04/09 00:57:28;;;;;;;24.15;5.63;;;19.50;91.70;;;;;;5356853;26;20016;-53
2024/04/09 00:59:56;;;;;;;28.55;4.88;;;19.50;92.30;;;;;;5351766;26;20001;-54
2024/04/09 01:02:23;;;;;;;25.80;4.40;;;19.40;92.80;;;;;;5363354;26;20492;-57
2024/04/09 01:04:52;;;;;;;24.38;3.90;;;19.30;92.90;;;;;;5358442;26;20005;-56
2024/04/09 01:07:18;;;;;;;18.73;4.20;;;19.30;92.80;;;;;;5329797;26;19996;-54
2024/04/09 01:09:44;;;;;;;22.95;4.50;;;19.20;93.00;;;;;;5368993;26;20004;-54
2024/04/09 01:12:10;;;;;;;38.92;4.00;;;19.10;93.40;;;;;;5355353;26;20079;-57
2024/04/09 01:14:36;;;;;;;28.17;4.43;;;19.00;93.30;;;;;;5392362;26;19996;-55
2024/04/09 01:17:03;;;;;;;18.35;3.15;;;18.90;94.00;;;;;;5362062;26;20380;-53
2024/04/09 01:19:28;;;;;;;17.08;3.47;;;18.80;94.60;;;;;;5366356;26;20131;-54
2024/04/09 01:21:54;;;;;;;18.38;5.05;;;18.70;95.10;;;;;;5395415;26;20076;-56
2024/04/09 01:24:20;;;;;;;29.52;4.18;;;18.50;95.50;;;;;;5374594;26;20006;-52
2024/04/09 01:26:49;;;;;;;18.42;3.60;;;18.40;96.00;;;;;;5369942;26;20073;-56
2024/04/09 01:29:18;;;;;;;10.55;2.55;;;18.20;97.20;;;;;;5365606;26;20020;-58
2024/04/09 01:31:44;;;;;;;15.85;3.00;;;18.00;98.50;;;;;;5362033;26;20384;-55
2024/04/09 01:34:09;;;;;;;12.75;2.67;;;17.90;99.90;;;;;;5373600;26;20000;-53
2024/04/09 01:36:38;;;;;;;13.45;2.58;;;17.80;99.90;;;;;;5370510;26;20000;-56
2024/04/09 01:39:08;;;;;;;15.07;2.55;;;17.70;99.90;;;;;;5356022;26;22308;-54
2024/04/09 01:41:38;;;;;;;12.10;2.90;;;17.60;99.90;;;;;;5374453;26;20076;-55
2024/04/09 01:44:04;;;;;;;10.60;2.50;;;17.40;99.90;;;;;;5360151;26;20004;-57
2024/04/09 01:46:30;;;;;;;14.93;2.85;;;17.40;99.90;;;;;;5352444;26;20005;-55
2024/04/09 01:48:56;;;;;;;13.63;2.70;;;17.30;99.90;;;;;;5366795;26;19992;-55
2024/04/09 01:51:21;;;;;;;20.60;2.75;;;17.20;99.90;;;;;;5377748;26;20004;-52
2024/04/09 01:53:48;;;;;;;10.00;2.88;;;17.10;99.90;;;;;;5368433;26;20085;-56
2024/04/09 01:56:15;;;;;;;12.65;2.22;;;17.00;99.90;;;;;;5378250;26;20001;-57
2024/04/09 01:58:41;;;;;;;20.13;3.05;;;17.00;99.90;;;;;;5383444;26;20020;-57
2024/04/09 02:01:09;;;;;;;9.32;2.15;;;16.80;99.90;;;;;;5383755;26;19997;-56
2024/04/09 02:03:36;;;;;;;14.02;2.53;;;16.80;99.90;;;;;;5383376;26;19996;-55
2024/04/09 02:06:02;;;;;;;11.25;2.17;;;16.70;99.90;;;;;;5381812;26;19996;-55
2024/04/09 02:08:28;;;;;;;9.23;2.38;;;16.60;99.90;;;;;;5382725;26;20000;-56
2024/04/09 02:10:54;;;;;;;17.30;2.05;;;16.50;99.90;;;;;;5383242;26;20354;-58
2024/04/09 02:13:19;;;;;;;8.27;2.22;;;16.40;99.90;;;;;;5383169;26;20004;-56
2024/04/09 02:15:45;;;;;;;14.18;2.47;;;16.40;99.90;;;;;;5382995;26;20396;-56
2024/04/09 02:18:11;;;;;;;13.40;1.73;;;16.30;99.90;;;;;;5382968;26;20442;-59
2024/04/09 02:20:38;;;;;;;19.77;2.58;;;16.40;99.90;;;;;;5383159;26;20375;-56
2024/04/09 02:23:04;;;;;;;19.83;2.10;;;16.30;99.90;;;;;;5382869;26;20009;-58
2024/04/09 02:25:30;;;;;;;13.75;2.05;;;16.40;99.90;;;;;;5383058;26;20016;-56
2024/04/09 02:27:56;;;;;;;10.23;1.80;;;16.30;99.90;;;;;;5382982;26;19992;-55
2024/04/09 02:30:21;;;;;;;13.60;2.50;;;16.40;99.90;;;;;;5383092;26;20019;-58
2024/04/09 02:32:47;;;;;;;16.50;3.38;;;16.40;99.90;;;;;;5382838;26;20004;-58
2024/04/09 02:35:13;;;;;;;8.55;1.67;;;16.30;99.90;;;;;;5382754;26;20380;-56
2024/04/09 02:37:39;;;;;;;8.85;1.60;;;16.30;99.90;;;;;;5383043;26;19998;-54
2024/04/09 02:40:05;;;;;;;9.30;1.67;;;16.20;99.90;;;;;;5382627;26;20333;-56
2024/04/09 02:42:30;;;;;;;9.10;1.67;;;16.20;99.90;;;;;;5410669;26;20023;-56
2024/04/09 02:44:56;;;;;;;11.20;1.98;;;16.20;99.90;;;;;;5382841;26;20004;-55
2024/04/09 02:47:23;;;;;;;7.82;2.42;;;16.10;99.90;;;;;;5382451;26;20006;-57
2024/04/09 02:49:48;;;;;;;9.80;1.65;;;16.10;99.90;;;;;;5382384;26;20000;-58
2024/04/09 02:52:14;;;;;;;9.82;2.25;;;16.10;99.90;;;;;;5382988;26;20090;-57
2024/04/09 02:54:39;;;;;;;9.73;1.38;;;16.00;99.90;;;;;;5382613;26;20024;-58
2024/04/09 02:57:05;;;;;;;7.57;1.63;;;15.90;99.90;;;;;;5381186;26;20011;-57
2024/04/09 02:59:31;;;;;;;10.90;2.00;;;15.90;99.90;;;;;;5382666;26;20431;-55
2024/04/09 03:01:57;;;;;;;9.02;1.80;;;15.80;99.90;;;;;;5381974;26;20003;-56
2024/04/09 03:04:22;;;;;;;16.45;2.30;;;15.80;99.90;;;;;;5382054;26;19996;-56
2024/04/09 03:06:48;;;;;;;6.90;1.90;;;15.70;99.90;;;;;;5380358;26;19996;-58
2024/04/09 03:09:14;;;;;;;7.40;1.70;;;15.80;99.90;;;;;;5382070;26;20011;-54
2024/04/09 03:11:39;;;;;;;9.63;1.80;;;15.80;99.90;;;;;;5382363;26;20007;-56
2024/04/09 03:14:10;;;;;;;13.88;2.00;;;15.80;99.90;;;;;;5380469;26;20007;-56
2024/04/09 03:16:36;;;;;;;13.40;2.20;;;15.80;99.90;;;;;;5382532;26;20089;-54
2024/04/09 03:19:03;;;;;;;7.93;1.85;;;15.80;99.90;;;;;;5382269;26;19997;-56
2024/04/09 03:21:29;;;;;;;14.63;2.58;;;15.80;99.90;;;;;;5382132;26;20508;-55
2024/04/09 03:23:55;;;;;;;10.20;2.65;;;15.80;99.90;;;;;;5382123;26;20333;-56
2024/04/09 03:26:21;;;;;;;12.82;2.17;;;15.80;99.90;;;;;;5382273;26;19996;-57
2024/04/09 03:28:47;;;;;;;14.43;2.33;;;15.70;99.90;;;;;;5410019;26;20113;-56
2024/04/09 03:31:12;;;;;;;9.98;1.75;;;15.70;99.90;;;;;;5382441;26;20346;-55
2024/04/09 03:33:38;;;;;;;8.48;2.90;;;15.60;99.90;;;;;;5382172;26;20022;-58
2024/04/09 03:36:06;;;;;;;12.15;2.90;;;15.60;99.90;;;;;;5382131;26;20000;-55
2024/04/09 03:38:32;;;;;;;5.07;2.05;;;15.50;99.90;;;;;;5380557;26;20011;-58
2024/04/09 03:41:03;;;;;;;8.80;2.22;;;15.50;99.90;;;;;;5382220;26;20015;-59
2024/04/09 03:43:29;;;;;;;6.85;1.80;;;15.50;99.90;;;;;;5382340;26;19996;-55
2024/04/09 03:46:10;;;;;;;8.63;1.58;;;15.40;99.90;;;;;;5382100;26;20000;-54
2024/04/09 03:48:38;;;;;;;9.23;2.17;;;15.40;99.90;;;;;;5382039;26;20000;-57
2024/04/09 03:51:04;;;;;;;9.10;2.67;;;15.30;99.90;;;;;;5382127;26;20009;-54
2024/04/09 03:53:30;;;;;;;12.00;1.65;;;15.30;99.90;;;;;;5382095;26;20437;-56
2024/04/09 03:56:00;;;;;;;16.60;3.00;;;15.20;99.90;;;;;;5382320;26;20004;-55
2024/04/09 03:58:29;;;;;;;13.02;1.73;;;15.20;99.90;;;;;;5382106;26;20000;-57
2024/04/09 04:00:55;;;;;;;13.77;2.15;;;15.20;99.90;;;;;;5382114;26;20030;-53
2024/04/09 04:03:21;;;;;;;10.07;2.05;;;15.10;99.90;;;;;;5382073;26;20013;-56
2024/04/09 04:05:53;;;;;;;8.85;2.67;;;15.00;99.90;;;;;;5409340;26;20005;-57
2024/04/09 04:08:27;;;;;;;8.00;1.60;;;14.90;99.90;;;;;;5381527;26;20404;-56
2024/04/09 04:11:03;;;;;;;9.25;1.77;;;14.80;99.90;;;;;;5381617;26;20081;-59
2024/04/09 04:13:31;;;;;;;7.00;1.98;;;14.70;99.90;;;;;;5380418;26;20326;-56
2024/04/09 04:15:58;;;;;;;19.10;4.10;;;14.70;99.90;;;;;;5381571;26;19996;-57
2024/04/09 04:18:24;;;;;;;6.57;1.40;;;14.60;99.90;;;;;;5381533;26;19996;-56
2024/04/09 04:20:54;;;;;;;5.25;1.65;;;14.60;99.90;;;;;;5381328;26;20095;-57
2024/04/09 04:23:19;;;;;;;10.85;2.83;;;14.60;99.90;;;;;;5381228;26;20511;-56
2024/04/09 04:26:02;;;;;;;11.80;2.03;;;14.60;99.90;;;;;;5379939;26;20008;-57
2024/04/09 04:28:28;;;;;;;8.55;2.05;;;14.60;99.90;;;;;;5381356;26;20447;-57
2024/04/09 04:30:54;;;;;;;7.45;1.92;;;14.60;99.90;;;;;;5381462;26;20012;-57
2024/04/09 04:33:19;;;;;;;6.75;1.63;;;14.60;99.90;;;;;;5381043;26;20008;-57
2024/04/09 04:35:45;;;;;;;8.55;2.00;;;14.60;99.90;;;;;;5381072;26;20443;-55
2024/04/09 04:38:10;;;;;;;8.63;1.98;;;14.50;99.90;;;;;;5381125;26;20015;-56
2024/04/09 04:40:36;;;;;;;12.82;2.72;;;14.50;99.90;;;;;;5381149;26;20014;-58
2024/04/09 04:43:02;;;;;;;13.88;3.92;;;14.40;99.90;;;;;;5379355;26;20015;-58
2024/04/09 04:45:29;;;;;;;8.15;2.08;;;14.40;99.90;;;;;;5379372;26;20000;-58
2024/04/09 04:47:55;;;;;;;16.92;2.05;;;14.30;99.90;;;;;;5379459;26;20074;-55
2024/04/09 04:50:20;;;;;;;8.13;2.40;;;14.20;99.90;;;;;;5380986;26;20016;-57
2024/04/09 04:52:46;;;;;;;7.80;1.88;;;14.20;99.90;;;;;;5381015;26;20338;-58
2024/04/09 04:55:12;;;;;;;8.07;2.17;;;14.20;99.90;;;;;;5381023;26;20027;-56
2024/04/09 04:57:38;;;;;;;7.40;2.03;;;14.10;99.90;;;;;;5380932;26;20000;-57
2024/04/09 05:00:09;;;;;;;4.53;2.10;;;14.00;99.90;;;;;;5380931;26;20027;-58
2024/04/09 05:02:36;;;;;;;9.38;1.83;;;14.00;99.90;;;;;;5381039;26;20454;-60
2024/04/09 05:05:04;;;;;;;10.90;2.00;;;14.00;99.90;;;;;;5381295;26;20004;-57
2024/04/09 05:07:30;;;;;;;12.32;3.13;;;14.00;99.90;;;;;;5409133;26;20376;-56
2024/04/09 05:09:55;;;;;;;11.20;2.28;;;14.10;99.90;;;;;;5380749;26;20014;-58
2024/04/09 05:12:21;;;;;;;12.18;2.55;;;14.10;99.90;;;;;;5380687;26;20326;-57
2024/04/09 05:14:47;;;;;;;10.45;1.83;;;14.10;99.90;;;;;;5381212;26;20446;-58
2024/04/09 05:17:13;;;;;;;10.00;2.05;;;14.10;99.90;;;;;;5380991;26;20015;-58
2024/04/09 05:19:39;;;;;;;6.95;1.58;;;14.10;99.90;;;;;;5380926;26;20015;-56
2024/04/09 05:22:04;;;;;;;10.23;1.80;;;14.10;99.90;;;;;;5381101;26;20012;-58
2024/04/09 05:24:32;;;;;;;9.40;2.03;;;14.10;99.90;;;;;;5380343;26;20012;-57
2024/04/09 05:26:57;;;;;;;8.85;2.20;;;14.10;99.90;;;;;;5380849;26;20004;-56
2024/04/09 05:29:23;;;;;;;6.88;1.77;;;14.10;99.90;;;;;;5380531;26;20019;-58
2024/04/09 05:31:48;;;;;;;8.00;1.52;;;14.00;99.90;;;;;;5379367;26;20042;-57
2024/04/09 05:34:14;;;;;;;8.55;2.53;;;14.00;99.90;;;;;;5378891;26;20461;-57
2024/04/09 05:36:40;;;;;;;11.85;1.73;;;14.00;99.90;;;;;;5408540;26;20039;-56
2024/04/09 05:39:05;;;;;;;12.15;2.80;;;14.00;99.90;;;;;;5380723;26;20330;-57
2024/04/09 05:41:31;;;;;;;7.25;1.40;;;14.00;99.90;;;;;;5379129;26;20004;-53
2024/04/09 05:43:57;;;;;;;15.35;2.00;;;14.00;99.90;;;;;;5380590;26;20008;-53
2024/04/09 05:46:23;;;;;;;7.35;2.60;;;14.00;99.90;;;;;;5380829;26;20044;-55
2024/04/09 05:48:49;;;;;;;6.28;1.92;;;14.00;99.90;;;;;;5380578;26;20019;-56
2024/04/09 05:51:14;;;;;;;13.52;2.00;;;14.00;99.90;;;;;;5380674;26;20001;-56
2024/04/09 05:53:40;;;;;;;7.70;1.83;;;13.90;99.90;;;;;;5380235;26;20000;-55
2024/04/09 05:56:05;;;;;;;5.60;1.90;;;14.00;99.90;;;;;;5380092;26;20001;-56
2024/04/09 05:58:32;;;;;;;8.95;1.90;;;13.90;99.90;;;;;;5352466;26;20005;-56
2024/04/09 06:00:58;;;;;;;6.68;1.52;;;13.90;99.90;;;;;;5343422;26;20001;-55
2024/04/09 06:03:23;;;;;;;5.10;1.65;;;13.90;99.90;;;;;;5344921;26;20356;-54
2024/04/09 06:05:51;;;;;;;6.70;1.75;;;13.90;99.90;;;;;;5372531;26;20056;-57
2024/04/09 06:08:17;;;;;;;5.68;1.63;;;13.90;99.90;;;;;;5345137;26;20001;-53
2024/04/09 06:10:45;;;;;;;6.47;1.70;;;13.90;99.90;;;;;;5350779;26;20080;-53
2024/04/09 06:13:11;;;;;;;9.88;1.70;;;14.00;99.90;;;;;;5378067;26;20004;-55
2024/04/09 06:15:37;;;;;;;6.90;1.88;;;14.00;99.90;;;;;;5377867;26;20004;-57
2024/04/09 06:18:03;;;;;;;12.35;2.05;;;14.00;99.90;;;;;;5379646;26;20457;-53
2024/04/09 06:20:29;;;;;;;12.75;2.22;;;14.10;99.90;;;;;;5379931;26;20429;-56
2024/04/09 06:22:54;;;;;;;11.00;2.78;;;14.20;99.90;;;;;;5379921;26;20008;-54
2024/04/09 06:25:20;;;;;;;7.75;1.95;;;14.30;99.90;;;;;;5377995;26;20327;-57
2024/04/09 06:27:45;;;;;;;6.30;2.10;;;14.40;99.90;;;;;;5377986;26;20015;-56
2024/04/09 06:30:11;;;;;;;5.68;2.17;;;14.50;99.90;;;;;;5379902;26;20000;-54
2024/04/09 06:32:39;;;;;;;6.55;1.73;;;14.50;99.90;;;;;;5379491;26;20333;-56
2024/04/09 06:35:06;;;;;;;7.68;1.95;;;14.50;99.90;;;;;;5379400;26;20089;-55
2024/04/09 06:37:31;;;;;;;8.48;2.67;;;14.50;99.90;;;;;;5382642;26;20105;-54
2024/04/09 06:39:57;;;;;;;5.60;1.70;;;14.50;99.90;;;;;;5382826;26;20016;-53
2024/04/09 06:42:23;;;;;;;19.15;1.88;;;14.40;99.90;;;;;;5382903;26;20008;-55
2024/04/09 06:44:48;;;;;;;6.97;1.67;;;14.30;99.90;;;;;;5381228;26;20004;-59
2024/04/09 06:47:14;;;;;;;12.32;2.58;;;14.30;99.90;;;;;;5383020;26;20072;-55
2024/04/09 06:49:43;;;;;;;5.85;2.50;;;14.30;99.90;;;;;;5376847;26;20000;-57
2024/04/09 06:52:08;;;;;;;7.60;2.33;;;14.20;99.90;;;;;;5380178;26;20007;-55
2024/04/09 06:54:34;;;;;;;4.55;2.45;;;14.20;99.90;;;;;;5382656;26;19998;-55
2024/04/09 06:57:00;;;;;;;4.28;1.10;;;14.10;99.90;;;;;;5382678;26;20000;-57
2024/04/09 06:59:26;;;;;;;3.08;0.80;;;14.00;99.90;;;;;;5371542;26;20019;-51
2024/04/09 07:01:51;;;;;;;2.72;0.73;;;13.80;99.90;;;;;;5355928;26;22554;-53
2024/04/09 07:04:17;;;;;;;3.40;0.80;;;13.70;99.90;;;;;;5360597;26;20054;-56
2024/04/09 07:06:43;;;;;;;3.55;1.33;;;13.70;99.90;;;;;;5362964;26;20018;-57
2024/04/09 07:09:09;;;;;;;4.10;0.90;;;13.60;99.90;;;;;;5355655;26;20102;-53
2024/04/09 07:11:36;;;;;;;3.13;0.60;;;13.50;99.90;;;;;;5355413;26;22059;-55
2024/04/09 07:14:02;;;;;;;2.00;0.70;;;13.40;99.90;;;;;;5357426;26;20352;-54
2024/04/09 07:16:28;;;;;;;3.03;0.50;;;13.30;99.90;;;;;;5355587;26;20011;-52
2024/04/09 07:18:54;;;;;;;3.25;0.90;;;13.20;99.90;;;;;;5354634;26;20008;-54
2024/04/09 07:21:21;;;;;;;4.95;0.80;;;13.20;99.90;;;;;;5356540;26;20011;-53
2024/04/09 07:23:47;;;;;;;3.78;0.85;;;13.20;99.90;;;;;;5358218;26;20001;-54
2024/04/09 07:26:13;;;;;;;2.22;0.80;;;13.10;99.90;;;;;;5358890;26;20042;-54
2024/04/09 07:28:39;;;;;;;2.63;1.40;;;13.10;99.90;;;;;;5353475;26;20000;-56
2024/04/09 07:31:05;;;;;;;1.77;0.85;;;13.00;99.90;;;;;;5356453;26;20371;-54
2024/04/09 07:33:31;;;;;;;3.25;1.25;;;12.90;99.90;;;;;;5359937;26;20050;-52
2024/04/09 07:35:59;;;;;;;1.13;0.60;;;12.90;99.90;;;;;;5367428;26;20064;-51
2024/04/09 07:38:25;;;;;;;2.67;0.70;;;12.80;99.90;;;;;;5376118;26;20318;-51
2024/04/09 07:40:51;;;;;;;3.40;1.45;;;12.60;99.90;;;;;;5360806;26;20011;-52
2024/04/09 07:43:17;;;;;;;0.95;0.50;;;12.50;99.90;;;;;;5367074;26;20000;-53
2024/04/09 07:45:43;;;;;;;1.35;0.80;;;12.40;99.90;;;;;;5398562;26;20564;-54
2024/04/09 07:48:09;;;;;;;2.05;0.60;;;12.40;99.90;;;;;;5359271;26;20066;-54
2024/04/09 07:50:35;;;;;;;1.85;0.40;;;12.40;99.90;;;;;;5357154;26;20427;-51
2024/04/09 07:53:01;;;;;;;5.10;1.30;;;12.50;99.90;;;;;;5361237;26;20006;-52
2024/04/09 07:55:27;;;;;;;0.98;0.40;;;12.50;99.90;;;;;;5361513;26;20044;-53
2024/04/09 07:57:53;;;;;;;2.30;0.95;;;12.60;99.90;;;;;;5364100;26;20070;-55
2024/04/09 08:00:19;;;;;;;6.20;0.45;;;12.70;99.90;;;;;;5368984;26;20000;-54
2024/04/09 08:02:45;;;;;;;1.83;0.70;;;12.80;99.90;;;;;;5371924;26;20009;-52
2024/04/09 08:05:12;;;;;;;2.15;0.60;;;12.70;99.90;;;;;;5369763;26;20011;-56
2024/04/09 08:07:39;;;;;;;0.90;0.45;;;12.70;99.90;;;;;;5360104;26;20011;-53
2024/04/09 08:10:11;;;;;;;1.35;0.60;;;12.60;99.90;;;;;;5375075;26;20004;-53
2024/04/09 08:12:37;;;;;;;2.10;0.60;;;12.60;99.90;;;;;;5358939;26;20069;-55
2024/04/09 08:15:03;;;;;;;2.00;1.17;;;12.60;99.90;;;;;;5371329;26;20011;-55
2024/04/09 08:17:29;;;;;;;4.05;1.02;;;12.60;99.90;;;;;;5359056;26;20024;-53
2024/04/09 08:19:55;;;;;;;1.48;0.90;;;12.50;99.90;;;;;;5363233;26;20875;-52
2024/04/09 08:22:22;;;;;;;1.92;0.47;;;12.50;99.90;;;;;;5339818;26;20016;-57
2024/04/09 08:24:47;;;;;;;3.58;1.20;;;12.40;99.90;;;;;;5361963;26;20043;-57
2024/04/09 08:27:14;;;;;;;0.95;0.52;;;12.30;99.90;;;;;;5356780;26;20463;-52
2024/04/09 08:29:40;;;;;;;2.05;0.50;;;12.30;99.90;;;;;;5357337;26;19996;-55
2024/04/09 08:32:06;;;;;;;1.38;0.40;;;12.30;99.90;;;;;;5365443;26;20082;-56
2024/04/09 08:34:31;;;;;;;6.93;1.23;;;12.20;99.90;;;;;;5355047;26;19996;-58
2024/04/09 08:36:57;;;;;;;6.78;0.50;;;12.20;99.90;;;;;;5375561;26;20730;-53
2024/04/09 08:39:24;;;;;;;1.85;0.57;;;12.20;99.90;;;;;;5378675;26;20015;-56
2024/04/09 08:41:50;;;;;;;9.27;2.15;;;12.10;99.90;;;;;;5366508;26;20577;-56
2024/04/09 08:44:17;;;;;;;4.97;0.60;;;12.10;99.90;;;;;;5356011;26;20015;-55
2024/04/09 08:46:42;;;;;;;3.20;1.15;;;12.10;99.90;;;;;;5364810;26;20000;-55
2024/04/09 08:49:09;;;;;;;4.63;0.80;;;12.00;99.90;;;;;;5364194;26;20073;-55
2024/04/09 08:51:35;;;;;;;5.50;0.70;;;11.90;99.90;;;;;;5371918;26;20096;-58
2024/04/09 08:54:01;;;;;;;5.18;0.50;;;11.90;99.90;;;;;;5356324;26;20044;-54
2024/04/09 08:56:27;;;;;;;5.63;0.77;;;11.90;99.90;;;;;;5369133;26;20000;-53
2024/04/09 08:58:53;;;;;;;1.70;0.50;;;11.90;99.90;;;;;;5364648;26;20000;-52
2024/04/09 09:01:31;;;;;;;2.53;0.85;;;12.00;99.90;;;;;;5370591;26;20073;-56
2024/04/09 09:03:57;;;;;;;6.07;1.30;;;12.10;99.90;;;;;;5342171;26;20012;-55
2024/04/09 09:06:23;;;;;;;4.20;0.60;;;12.10;99.90;;;;;;5361307;26;20003;-55
2024/04/09 09:08:50;;;;;;;4.05;0.55;;;12.00;99.90;;;;;;5356881;26;20012;-56
2024/04/09 09:11:22;;;;;;;1.25;0.55;;;12.10;99.90;;;;;;5354809;26;21335;-57
2024/04/09 09:13:49;;;;;;;2.97;0.70;;;12.00;99.90;;;;;;5355620;26;20008;-55
2024/04/09 09:16:14;;;;;;;4.50;1.13;;;12.00;99.90;;;;;;5345455;26;20103;-58
2024/04/09 09:18:40;;;;;;;5.30;0.60;;;12.00;99.90;;;;;;5343468;26;20028;-52
2024/04/09 09:21:06;;;;;;;2.85;0.70;;;12.00;99.90;;;;;;5355096;26;20008;-54
2024/04/09 09:23:32;;;;;;;5.25;1.48;;;11.90;99.90;;;;;;5353170;26;20005;-55
2024/04/09 09:25:58;;;;;;;9.02;1.83;;;11.80;99.90;;;;;;5368146;26;20612;-57
2024/04/09 09:28:25;;;;;;;8.43;2.50;;;11.70;99.90;;;;;;5353126;26;20008;-55
2024/04/09 09:30:55;;;;;;;8.43;1.35;;;11.70;99.90;;;;;;5355073;26;19992;-54
2024/04/09 09:33:29;;;;;;;7.00;1.77;;;11.60;99.90;;;;;;5359642;26;20019;-55
2024/04/09 09:35:56;;;;;;;5.93;1.77;;;11.60;99.90;;;;;;5382556;26;19996;-54
2024/04/09 09:38:23;;;;;;;5.35;1.23;;;11.60;99.90;;;;;;5381767;26;20368;-55
2024/04/09 09:40:51;;;;;;;4.95;1.10;;;11.60;99.90;;;;;;5364298;26;20008;-52
2024/04/09 09:43:18;;;;;;;5.32;0.70;;;11.70;99.90;;;;;;5354211;26;20513;-57
2024/04/09 09:45:45;;;;;;;2.28;0.70;;;11.70;99.90;;;;;;5355077;26;20005;-56
2024/04/09 09:48:12;;;;;;;6.85;0.90;;;11.80;99.90;;;;;;5360364;26;20003;-53
2024/04/09 09:50:42;;;;;;;1.50;0.98;;;12.00;99.90;;;;;;5355368;26;20004;-54
2024/04/09 09:53:09;;;;;;;7.03;0.80;;;12.10;99.90;;;;;;5353437;26;20355;-53
2024/04/09 09:55:39;;;;;;;1.17;0.43;;;12.40;99.90;;;;;;5366944;26;20014;-57
2024/04/09 09:58:08;;;;;;;1.08;0.50;;;12.60;99.90;;;;;;5379486;26;20016;-58
2024/04/09 10:00:36;;;;;;;7.10;0.98;;;13.00;99.90;;;;;;5379886;26;20392;-55
2024/04/09 10:03:03;;;;;;;1.45;0.40;;;13.30;99.90;;;;;;5379540;26;20570;-53
2024/04/09 10:05:32;;;;;;;1.67;0.75;;;13.40;99.90;;;;;;5379603;26;20127;-59
2024/04/09 10:07:58;;;;;;;4.85;0.70;;;13.50;99.90;;;;;;5379407;26;20016;-58
2024/04/09 10:10:30;;;;;;;2.67;0.60;;;13.50;99.90;;;;;;5370506;26;20032;-56
2024/04/09 10:13:06;;;;;;;0.85;0.32;;;13.50;99.90;;;;;;5382688;26;20000;-59
2024/04/09 10:15:32;;;;;;;3.33;0.52;;;13.60;99.90;;;;;;5382958;26;20000;-56
2024/04/09 10:18:04;;;;;;;1.02;0.55;;;13.70;99.90;;;;;;5381691;26;20011;-58
2024/04/09 10:20:31;;;;;;;2.42;0.73;;;13.80;99.90;;;;;;5382420;26;20000;-58
2024/04/09 10:23:02;;;;;;;8.40;1.08;;;13.90;99.90;;;;;;5382231;26;20241;-57
2024/04/09 10:25:46;;;;;;;4.55;0.93;;;13.80;99.90;;;;;;5382718;26;20438;-56
2024/04/09 10:28:13;;;;;;;4.68;0.68;;;13.70;99.90;;;;;;5382469;26;20004;-57
2024/04/09 10:30:45;;;;;;;3.28;0.70;;;13.50;99.90;;;;;;5382828;26;20015;-56
2024/04/09 10:33:11;;;;;;;6.43;0.85;;;13.40;99.90;;;;;;5382622;26;20342;-57
2024/04/09 10:35:41;;;;;;;7.47;1.15;;;13.40;99.90;;;;;;5382584;26;20015;-55
2024/04/09 10:38:07;;;;;;;2.67;0.60;;;13.30;99.90;;;;;;5382589;26;20033;-57
2024/04/09 10:40:34;;;;;;;3.30;0.98;;;13.20;99.90;;;;;;5381216;26;20015;-58
2024/04/09 10:43:02;;;;;;;4.60;1.33;;;13.10;99.90;;;;;;5382444;26;20014;-57
2024/04/09 10:45:29;;;;;;;4.72;1.52;;;13.10;99.90;;;;;;5382339;26;20015;-57
2024/04/09 10:47:55;;;;;;;2.53;0.80;;;13.00;99.90;;;;;;5372910;26;19996;-57
2024/04/09 10:50:21;;;;;;;2.33;0.93;;;13.00;99.90;;;;;;5369765;26;20464;-57
2024/04/09 10:52:47;;;;;;;6.10;0.93;;;13.00;99.90;;;;;;5366918;26;20004;-57
2024/04/09 10:55:14;;;;;;;1.05;0.70;;;12.90;99.90;;;;;;5375816;26;20008;-55
2024/04/09 10:57:40;;;;;;;3.20;0.70;;;12.90;99.90;;;;;;5376727;26;20437;-57
2024/04/09 11:00:08;;;;;;;3.30;0.85;;;13.00;99.90;;;;;;5368526;26;20011;-57
2024/04/09 11:02:35;;;;;;;1.55;0.82;;;13.00;99.90;;;;;;5377533;26;20001;-57
2024/04/09 11:05:01;;;;;;;4.00;1.00;;;13.30;99.90;;;;;;5365850;26;20015;-57
2024/04/09 11:07:27;;;;;;;10.27;1.15;;;13.30;99.90;;;;;;5366002;26;20016;-56
2024/04/09 11:09:54;;;;;;;3.25;0.95;;;13.40;99.90;;;;;;5397012;26;20004;-57
2024/04/09 11:12:20;;;;;;;3.75;0.90;;;13.40;99.90;;;;;;5362012;26;20045;-58
2024/04/09 11:14:46;;;;;;;4.13;1.08;;;13.50;99.90;;;;;;5363382;26;20404;-55
2024/04/09 11:17:18;;;;;;;1.73;0.88;;;13.70;99.90;;;;;;5378645;26;20001;-57
2024/04/09 11:19:44;;;;;;;2.58;0.65;;;13.60;99.90;;;;;;5364309;26;19993;-56
2024/04/09 11:22:11;;;;;;;3.70;0.80;;;13.70;99.90;;;;;;5374163;26;20015;-51
2024/04/09 11:24:36;;;;;;;2.47;0.60;;;13.70;99.90;;;;;;5377322;26;20004;-56
2024/04/09 11:27:05;;;;;;;6.45;0.80;;;13.80;99.90;;;;;;5378850;26;20014;-56
2024/04/09 11:29:30;;;;;;;11.75;1.08;;;13.70;99.90;;;;;;5374227;26;20338;-55
2024/04/09 11:32:01;;;;;;;4.18;1.05;;;13.70;99.90;;;;;;5373319;26;20001;-56
2024/04/09 11:34:29;;;;;;;6.03;1.00;;;13.80;99.90;;;;;;5375979;26;20000;-56
2024/04/09 11:36:55;;;;;;;2.88;0.57;;;13.80;99.90;;;;;;5358763;26;19997;-55
2024/04/09 11:39:22;;;;;;;5.18;0.70;;;13.80;99.90;;;;;;5371914;26;19996;-53
2024/04/09 11:41:52;;;;;;;5.28;0.90;;;13.80;99.90;;;;;;5364564;26;20077;-55
2024/04/09 11:44:22;;;;;;;7.00;1.23;;;14.30;99.90;;;;;;5367057;26;20011;-58
2024/04/09 11:46:48;;;;;;;5.45;0.82;;;14.80;99.90;;;;;;5371552;26;20000;-57
2024/04/09 11:49:14;;;;;;;5.38;0.88;;;15.20;99.90;;;;;;5358451;26;19993;-54
2024/04/09 11:51:41;;;;;;;3.72;0.80;;;15.40;99.90;;;;;;5369121;26;20559;-56
2024/04/09 11:54:07;;;;;;;4.05;1.88;;;15.60;99.90;;;;;;5350674;26;20715;-55
2024/04/09 11:56:35;;;;;;;2.08;0.82;;;15.70;99.90;;;;;;5375402;26;19997;-55
2024/04/09 11:59:01;;;;;;;6.55;1.02;;;15.70;99.90;;;;;;5368125;26;20520;-55
2024/04/09 12:01:28;;;;;;;5.38;1.77;;;15.60;99.90;;;;;;5383771;26;20008;-53
2024/04/09 12:03:54;;;;;;;2.65;0.57;;;15.30;99.90;;;;;;5365956;26;20009;-58
2024/04/09 12:06:19;;;;;;;4.57;0.77;;;14.80;99.90;;;;;;5366999;26;20409;-53
2024/04/09 12:08:46;;;;;;;3.67;0.88;;;14.70;99.90;;;;;;5370467;26;20019;-56
2024/04/09 12:11:11;;;;;;;2.78;0.77;;;14.80;99.90;;;;;;5375356;26;20104;-52
2024/04/09 12:13:38;;;;;;;5.60;1.10;;;14.80;99.90;;;;;;5361510;26;20019;-60
2024/04/09 12:16:04;;;;;;;4.63;0.90;;;14.80;99.90;;;;;;5370409;26;20346;-60
2024/04/09 12:18:31;;;;;;;7.90;1.05;;;15.00;99.90;;;;;;5373327;26;19997;-61
2024/04/09 12:20:57;;;;;;;8.85;1.02;;;15.00;99.90;;;;;;5376206;26;20019;-59
2024/04/09 12:23:23;;;;;;;3.78;1.05;;;14.90;99.90;;;;;;5365032;26;20347;-62
2024/04/09 12:25:49;;;;;;;5.70;1.00;;;14.80;99.90;;;;;;5345596;26;20078;-58
2024/04/09 12:28:15;;;;;;;2.88;1.13;;;15.00;99.90;;;;;;5345827;26;20430;-56
2024/04/09 12:30:41;;;;;;;6.88;1.60;;;15.10;99.90;;;;;;5343930;26;20011;-55
2024/04/09 12:33:06;;;;;;;1.70;0.90;;;15.10;99.90;;;;;;5345061;26;20001;-57
2024/04/09 12:35:32;;;;;;;4.63;1.00;;;15.20;99.90;;;;;;5342441;26;20015;-56
2024/04/09 12:37:57;;;;;;;3.00;0.98;;;15.10;99.90;;;;;;5344123;26;20019;-56
2024/04/09 12:40:24;;;;;;;3.83;0.80;;;15.10;99.90;;;;;;5371711;26;20398;-55